sensor_id;sensor_type;location;lat;lon;timestamp;P1;durP1;ratioP1;P2;durP2;ratioP2
32501;SDS011;18952;52.516;13.460;2024-03-06T00:01:40;42.75;;;35.50;;
32501;SDS011;18952;52.516;13.460;2024-03-06T00:04:09;28.83;;;24.50;;
32501;SDS011;18952;52.516;13.460;2024-03-06T00:06:43;32.17;;;25.50;;
32501;SDS011;18952;52.516;13.460;2024-03-06T00:09:09;41.73;;;29.90;;
32501;SDS011;18952;52.516;13.460;2024-03-06T00:11:39;33.40;;;26.50;;
32501;SDS011;18952;52.516;13.460;2024-03-06T00:14:08;38.40;;;26.10;;
32501;SDS011;18952;52.516;13.460;2024-03-06T00:16:35;34.63;;;25.20;;
32501;SDS011;18952;52.516;13.460;2024-03-06T00:19:02;31.92;;;24.55;;
32501;SDS011;18952;52.516;13.460;2024-03-06T00:21:30;31.58;;;24.85;;
32501;SDS011;18952;52.516;13.460;2024-03-06T00:23:58;25.75;;;22.98;;
32501;SDS011;18952;52.516;13.460;2024-03-06T00:26:25;29.67;;;23.57;;
32501;SDS011;18952;52.516;13.460;2024-03-06T00:28:55;30.80;;;24.85;;
32501;SDS011;18952;52.516;13.460;2024-03-06T00:31:23;36.65;;;26.23;;
32501;SDS011;18952;52.516;13.460;2024-03-06T00:33:53;28.70;;;24.13;;
32501;SDS011;18952;52.516;13.460;2024-03-06T00:36:25;29.48;;;24.45;;
32501;SDS011;18952;52.516;13.460;2024-03-06T00:38:56;31.38;;;24.40;;
32501;SDS011;18952;52.516;13.460;2024-03-06T00:41:23;26.75;;;24.00;;
32501;SDS011;18952;52.516;13.460;2024-03-06T00:43:50;28.60;;;24.33;;
32501;SDS011;18952;52.516;13.460;2024-03-06T00:46:18;27.08;;;24.10;;
32501;SDS011;18952;52.516;13.460;2024-03-06T00:48:45;27.95;;;24.67;;
32501;SDS011;18952;52.516;13.460;2024-03-06T00:51:14;27.65;;;24.25;;
32501;SDS011;18952;52.516;13.460;2024-03-06T00:53:41;32.10;;;25.38;;
32501;SDS011;18952;52.516;13.460;2024-03-06T00:56:09;30.00;;;25.85;;
32501;SDS011;18952;52.516;13.460;2024-03-06T00:58:36;28.08;;;23.27;;
32501;SDS011;18952;52.516;13.460;2024-03-06T01:01:06;26.75;;;23.90;;
32501;SDS011;18952;52.516;13.460;2024-03-06T01:03:35;29.33;;;24.45;;
32501;SDS011;18952;52.516;13.460;2024-03-06T01:06:06;33.72;;;25.23;;
32501;SDS011;18952;52.516;13.460;2024-03-06T01:08:36;28.35;;;24.13;;
32501;SDS011;18952;52.516;13.460;2024-03-06T01:11:06;32.35;;;27.02;;
32501;SDS011;18952;52.516;13.460;2024-03-06T01:13:37;29.42;;;25.25;;
32501;SDS011;18952;52.516;13.460;2024-03-06T01:16:05;32.22;;;26.33;;
32501;SDS011;18952;52.516;13.460;2024-03-06T01:21:38;39.70;;;27.92;;
32501;SDS011;18952;52.516;13.460;2024-03-06T01:24:05;30.77;;;26.15;;
32501;SDS011;18952;52.516;13.460;2024-03-06T01:26:32;30.05;;;25.38;;
32501;SDS011;18952;52.516;13.460;2024-03-06T01:29:01;32.20;;;24.98;;
32501;SDS011;18952;52.516;13.460;2024-03-06T01:31:28;33.03;;;26.27;;
32501;SDS011;18952;52.516;13.460;2024-03-06T01:33:56;30.67;;;25.97;;
32501;SDS011;18952;52.516;13.460;2024-03-06T01:36:23;29.90;;;25.63;;
32501;SDS011;18952;52.516;13.460;2024-03-06T01:38:55;30.00;;;26.00;;
32501;SDS011;18952;52.516;13.460;2024-03-06T01:41:21;31.52;;;26.45;;
32501;SDS011;18952;52.516;13.460;2024-03-06T01:43:49;30.50;;;26.02;;
32501;SDS011;18952;52.516;13.460;2024-03-06T01:46:16;30.70;;;25.00;;
32501;SDS011;18952;52.516;13.460;2024-03-06T01:48:43;31.58;;;25.50;;
32501;SDS011;18952;52.516;13.460;2024-03-06T01:51:12;32.58;;;25.67;;
32501;SDS011;18952;52.516;13.460;2024-03-06T01:53:40;29.00;;;24.95;;
32501;SDS011;18952;52.516;13.460;2024-03-06T01:56:10;27.95;;;24.95;;
32501;SDS011;18952;52.516;13.460;2024-03-06T01:58:38;31.33;;;24.43;;
32501;SDS011;18952;52.516;13.460;2024-03-06T02:01:07;27.43;;;24.53;;
32501;SDS011;18952;52.516;13.460;2024-03-06T02:03:34;35.47;;;30.53;;
32501;SDS011;18952;52.516;13.460;2024-03-06T02:06:02;27.42;;;24.23;;
32501;SDS011;18952;52.516;13.460;2024-03-06T02:08:29;26.02;;;23.30;;
32501;SDS011;18952;52.516;13.460;2024-03-06T02:10:57;26.65;;;23.92;;
32501;SDS011;18952;52.516;13.460;2024-03-06T02:13:24;27.80;;;24.02;;
32501;SDS011;18952;52.516;13.460;2024-03-06T02:15:51;26.70;;;23.80;;
32501;SDS011;18952;52.516;13.460;2024-03-06T02:18:19;26.10;;;23.33;;
32501;SDS011;18952;52.516;13.460;2024-03-06T02:20:47;27.10;;;24.13;;
32501;SDS011;18952;52.516;13.460;2024-03-06T02:23:16;25.87;;;23.17;;
32501;SDS011;18952;52.516;13.460;2024-03-06T02:25:44;29.70;;;24.08;;
32501;SDS011;18952;52.516;13.460;2024-03-06T02:28:11;25.42;;;22.52;;
32501;SDS011;18952;52.516;13.460;2024-03-06T02:30:38;30.98;;;23.60;;
32501;SDS011;18952;52.516;13.460;2024-03-06T02:33:08;27.65;;;22.90;;
32501;SDS011;18952;52.516;13.460;2024-03-06T02:35:35;29.30;;;24.83;;
32501;SDS011;18952;52.516;13.460;2024-03-06T02:38:03;29.92;;;24.60;;
32501;SDS011;18952;52.516;13.460;2024-03-06T02:40:34;25.95;;;23.15;;
32501;SDS011;18952;52.516;13.460;2024-03-06T02:43:01;27.25;;;24.52;;
32501;SDS011;18952;52.516;13.460;2024-03-06T02:45:31;28.75;;;25.33;;
32501;SDS011;18952;52.516;13.460;2024-03-06T02:47:59;28.00;;;25.10;;
32501;SDS011;18952;52.516;13.460;2024-03-06T02:50:26;27.80;;;23.88;;
32501;SDS011;18952;52.516;13.460;2024-03-06T02:52:55;27.50;;;24.23;;
32501;SDS011;18952;52.516;13.460;2024-03-06T02:55:25;27.45;;;23.83;;
32501;SDS011;18952;52.516;13.460;2024-03-06T02:58:04;28.33;;;25.40;;
32501;SDS011;18952;52.516;13.460;2024-03-06T03:00:31;27.80;;;24.00;;
32501;SDS011;18952;52.516;13.460;2024-03-06T03:02:59;27.48;;;24.58;;
32501;SDS011;18952;52.516;13.460;2024-03-06T03:05:26;28.25;;;24.50;;
32501;SDS011;18952;52.516;13.460;2024-03-06T03:07:55;30.13;;;25.63;;
32501;SDS011;18952;52.516;13.460;2024-03-06T03:10:22;29.05;;;25.83;;
32501;SDS011;18952;52.516;13.460;2024-03-06T03:12:50;31.42;;;27.60;;
32501;SDS011;18952;52.516;13.460;2024-03-06T03:15:18;32.65;;;27.40;;
32501;SDS011;18952;52.516;13.460;2024-03-06T03:17:45;36.83;;;28.10;;
32501;SDS011;18952;52.516;13.460;2024-03-06T03:20:13;39.53;;;30.23;;
32501;SDS011;18952;52.516;13.460;2024-03-06T03:22:40;41.20;;;30.33;;
32501;SDS011;18952;52.516;13.460;2024-03-06T03:25:09;38.75;;;30.27;;
32501;SDS011;18952;52.516;13.460;2024-03-06T03:27:39;34.72;;;29.17;;
32501;SDS011;18952;52.516;13.460;2024-03-06T03:30:08;34.28;;;29.27;;
32501;SDS011;18952;52.516;13.460;2024-03-06T03:32:39;34.55;;;28.67;;
32501;SDS011;18952;52.516;13.460;2024-03-06T03:35:07;32.22;;;28.75;;
32501;SDS011;18952;52.516;13.460;2024-03-06T03:37:34;34.25;;;28.50;;
32501;SDS011;18952;52.516;13.460;2024-03-06T03:40:01;33.67;;;28.48;;
32501;SDS011;18952;52.516;13.460;2024-03-06T03:42:29;32.05;;;27.52;;
32501;SDS011;18952;52.516;13.460;2024-03-06T03:44:56;32.42;;;27.35;;
32501;SDS011;18952;52.516;13.460;2024-03-06T03:47:24;34.47;;;28.73;;
32501;SDS011;18952;52.516;13.460;2024-03-06T03:49:51;30.25;;;27.13;;
32501;SDS011;18952;52.516;13.460;2024-03-06T03:52:36;29.50;;;26.43;;
32501;SDS011;18952;52.516;13.460;2024-03-06T03:55:03;29.87;;;26.67;;
32501;SDS011;18952;52.516;13.460;2024-03-06T03:57:31;31.15;;;26.55;;
32501;SDS011;18952;52.516;13.460;2024-03-06T04:00:00;30.00;;;27.00;;
32501;SDS011;18952;52.516;13.460;2024-03-06T04:02:29;29.23;;;26.07;;
32501;SDS011;18952;52.516;13.460;2024-03-06T04:04:56;30.43;;;27.17;;
32501;SDS011;18952;52.516;13.460;2024-03-06T04:07:24;31.25;;;27.95;;
32501;SDS011;18952;52.516;13.460;2024-03-06T04:09:53;31.15;;;26.30;;
32501;SDS011;18952;52.516;13.460;2024-03-06T04:12:25;29.67;;;26.52;;
32501;SDS011;18952;52.516;13.460;2024-03-06T04:14:53;33.05;;;26.75;;
32501;SDS011;18952;52.516;13.460;2024-03-06T04:17:21;30.02;;;26.90;;
32501;SDS011;18952;52.516;13.460;2024-03-06T04:19:49;29.30;;;26.17;;
32501;SDS011;18952;52.516;13.460;2024-03-06T04:22:20;30.63;;;26.65;;
32501;SDS011;18952;52.516;13.460;2024-03-06T04:24:48;29.13;;;26.03;;
32501;SDS011;18952;52.516;13.460;2024-03-06T04:27:15;28.60;;;25.65;;
32501;SDS011;18952;52.516;13.460;2024-03-06T04:29:43;30.65;;;27.40;;
32501;SDS011;18952;52.516;13.460;2024-03-06T04:32:11;32.00;;;27.27;;
32501;SDS011;18952;52.516;13.460;2024-03-06T04:34:39;31.02;;;27.70;;
32501;SDS011;18952;52.516;13.460;2024-03-06T04:37:09;30.48;;;26.77;;
32501;SDS011;18952;52.516;13.460;2024-03-06T04:39:39;30.65;;;27.38;;
32501;SDS011;18952;52.516;13.460;2024-03-06T04:42:09;33.72;;;28.38;;
32501;SDS011;18952;52.516;13.460;2024-03-06T04:44:37;31.35;;;28.05;;
32501;SDS011;18952;52.516;13.460;2024-03-06T04:47:04;32.57;;;28.80;;
32501;SDS011;18952;52.516;13.460;2024-03-06T04:49:34;31.95;;;28.60;;
32501;SDS011;18952;52.516;13.460;2024-03-06T04:52:01;33.63;;;29.08;;
32501;SDS011;18952;52.516;13.460;2024-03-06T04:54:29;34.83;;;29.80;;
32501;SDS011;18952;52.516;13.460;2024-03-06T04:56:57;32.37;;;28.93;;
32501;SDS011;18952;52.516;13.460;2024-03-06T04:59:24;32.08;;;28.55;;
32501;SDS011;18952;52.516;13.460;2024-03-06T05:01:52;31.05;;;27.58;;
32501;SDS011;18952;52.516;13.460;2024-03-06T05:04:20;31.02;;;27.90;;
32501;SDS011;18952;52.516;13.460;2024-03-06T05:07:06;32.30;;;28.38;;
32501;SDS011;18952;52.516;13.460;2024-03-06T05:09:53;33.10;;;28.33;;
32501;SDS011;18952;52.516;13.460;2024-03-06T05:12:39;31.05;;;27.83;;
32501;SDS011;18952;52.516;13.460;2024-03-06T05:15:26;32.75;;;29.33;;
32501;SDS011;18952;52.516;13.460;2024-03-06T05:18:11;32.03;;;28.85;;
32501;SDS011;18952;52.516;13.460;2024-03-06T05:20:58;31.67;;;28.35;;
32501;SDS011;18952;52.516;13.460;2024-03-06T05:23:43;32.67;;;28.93;;
32501;SDS011;18952;52.516;13.460;2024-03-06T05:26:28;35.92;;;30.50;;
32501;SDS011;18952;52.516;13.460;2024-03-06T05:29:14;36.22;;;29.95;;
32501;SDS011;18952;52.516;13.460;2024-03-06T05:32:00;33.78;;;28.60;;
32501;SDS011;18952;52.516;13.460;2024-03-06T05:34:46;34.35;;;29.50;;
32501;SDS011;18952;52.516;13.460;2024-03-06T05:37:32;35.85;;;30.27;;
32501;SDS011;18952;52.516;13.460;2024-03-06T05:40:18;40.97;;;31.05;;
32501;SDS011;18952;52.516;13.460;2024-03-06T05:43:10;36.72;;;30.83;;
32501;SDS011;18952;52.516;13.460;2024-03-06T05:45:57;35.63;;;31.58;;
32501;SDS011;18952;52.516;13.460;2024-03-06T05:48:42;42.08;;;32.97;;
32501;SDS011;18952;52.516;13.460;2024-03-06T05:51:29;37.57;;;30.70;;
32501;SDS011;18952;52.516;13.460;2024-03-06T05:54:15;38.35;;;31.75;;
32501;SDS011;18952;52.516;13.460;2024-03-06T05:57:01;43.27;;;32.13;;
32501;SDS011;18952;52.516;13.460;2024-03-06T05:59:47;36.47;;;32.47;;
32501;SDS011;18952;52.516;13.460;2024-03-06T06:02:16;41.05;;;33.88;;
32501;SDS011;18952;52.516;13.460;2024-03-06T06:04:44;38.25;;;32.92;;
32501;SDS011;18952;52.516;13.460;2024-03-06T06:07:31;40.70;;;34.15;;
32501;SDS011;18952;52.516;13.460;2024-03-06T06:09:58;45.33;;;35.45;;
32501;SDS011;18952;52.516;13.460;2024-03-06T06:12:26;40.15;;;35.42;;
32501;SDS011;18952;52.516;13.460;2024-03-06T06:14:53;41.55;;;34.90;;
32501;SDS011;18952;52.516;13.460;2024-03-06T06:17:20;38.97;;;33.53;;
32501;SDS011;18952;52.516;13.460;2024-03-06T06:19:55;40.80;;;35.30;;
32501;SDS011;18952;52.516;13.460;2024-03-06T06:22:28;49.57;;;35.13;;
32501;SDS011;18952;52.516;13.460;2024-03-06T06:24:56;40.60;;;34.17;;
32501;SDS011;18952;52.516;13.460;2024-03-06T06:27:25;40.45;;;35.45;;
32501;SDS011;18952;52.516;13.460;2024-03-06T06:29:55;44.58;;;35.13;;
32501;SDS011;18952;52.516;13.460;2024-03-06T06:32:22;39.55;;;34.97;;
32501;SDS011;18952;52.516;13.460;2024-03-06T06:34:50;47.88;;;36.28;;
32501;SDS011;18952;52.516;13.460;2024-03-06T06:37:19;44.70;;;35.80;;
32501;SDS011;18952;52.516;13.460;2024-03-06T06:39:47;41.25;;;36.83;;
32501;SDS011;18952;52.516;13.460;2024-03-06T06:42:15;49.15;;;37.83;;
32501;SDS011;18952;52.516;13.460;2024-03-06T06:44:42;44.33;;;39.45;;
32501;SDS011;18952;52.516;13.460;2024-03-06T06:47:10;45.30;;;36.00;;
32501;SDS011;18952;52.516;13.460;2024-03-06T06:49:37;43.65;;;37.10;;
32501;SDS011;18952;52.516;13.460;2024-03-06T06:52:05;51.75;;;35.33;;
32501;SDS011;18952;52.516;13.460;2024-03-06T06:54:32;37.75;;;33.95;;
32501;SDS011;18952;52.516;13.460;2024-03-06T06:57:00;37.90;;;34.00;;
32501;SDS011;18952;52.516;13.460;2024-03-06T06:59:26;38.13;;;31.38;;
32501;SDS011;18952;52.516;13.460;2024-03-06T07:01:58;42.30;;;33.08;;
32501;SDS011;18952;52.516;13.460;2024-03-06T07:04:26;35.78;;;30.92;;
32501;SDS011;18952;52.516;13.460;2024-03-06T07:06:55;32.35;;;28.83;;
32501;SDS011;18952;52.516;13.460;2024-03-06T07:09:23;37.17;;;29.70;;
32501;SDS011;18952;52.516;13.460;2024-03-06T07:11:51;30.88;;;27.70;;
32501;SDS011;18952;52.516;13.460;2024-03-06T07:14:18;35.20;;;29.40;;
32501;SDS011;18952;52.516;13.460;2024-03-06T07:16:46;31.13;;;27.83;;
32501;SDS011;18952;52.516;13.460;2024-03-06T07:19:13;31.02;;;27.17;;
32501;SDS011;18952;52.516;13.460;2024-03-06T07:21:41;30.35;;;27.08;;
32501;SDS011;18952;52.516;13.460;2024-03-06T07:24:08;28.70;;;25.77;;
32501;SDS011;18952;52.516;13.460;2024-03-06T07:26:37;29.30;;;25.52;;
32501;SDS011;18952;52.516;13.460;2024-03-06T07:29:04;31.13;;;25.98;;
32501;SDS011;18952;52.516;13.460;2024-03-06T07:31:34;29.20;;;25.27;;
32501;SDS011;18952;52.516;13.460;2024-03-06T07:34:00;27.95;;;24.95;;
32501;SDS011;18952;52.516;13.460;2024-03-06T07:36:28;28.10;;;25.10;;
32501;SDS011;18952;52.516;13.460;2024-03-06T07:38:57;29.67;;;24.63;;
32501;SDS011;18952;52.516;13.460;2024-03-06T07:41:28;30.58;;;24.55;;
32501;SDS011;18952;52.516;13.460;2024-03-06T07:43:55;30.13;;;24.55;;
32501;SDS011;18952;52.516;13.460;2024-03-06T07:46:25;30.55;;;24.38;;
32501;SDS011;18952;52.516;13.460;2024-03-06T07:48:55;26.17;;;23.38;;
32501;SDS011;18952;52.516;13.460;2024-03-06T07:51:23;30.50;;;24.20;;
32501;SDS011;18952;52.516;13.460;2024-03-06T07:53:51;30.63;;;23.80;;
32501;SDS011;18952;52.516;13.460;2024-03-06T07:56:19;29.58;;;22.65;;
32501;SDS011;18952;52.516;13.460;2024-03-06T07:58:47;27.80;;;22.05;;
32501;SDS011;18952;52.516;13.460;2024-03-06T08:01:18;29.73;;;23.38;;
32501;SDS011;18952;52.516;13.460;2024-03-06T08:03:44;25.50;;;22.48;;
32501;SDS011;18952;52.516;13.460;2024-03-06T08:06:12;26.80;;;22.77;;
32501;SDS011;18952;52.516;13.460;2024-03-06T08:08:39;29.15;;;21.48;;
32501;SDS011;18952;52.516;13.460;2024-03-06T08:11:09;34.90;;;20.67;;
32501;SDS011;18952;52.516;13.460;2024-03-06T08:13:36;24.35;;;19.80;;
32501;SDS011;18952;52.516;13.460;2024-03-06T08:16:08;22.40;;;19.63;;
32501;SDS011;18952;52.516;13.460;2024-03-06T08:18:36;25.00;;;20.25;;
32501;SDS011;18952;52.516;13.460;2024-03-06T08:21:03;28.00;;;18.98;;
32501;SDS011;18952;52.516;13.460;2024-03-06T08:23:33;19.85;;;17.75;;
32501;SDS011;18952;52.516;13.460;2024-03-06T08:26:02;21.55;;;18.23;;
32501;SDS011;18952;52.516;13.460;2024-03-06T08:28:32;24.10;;;19.48;;
32501;SDS011;18952;52.516;13.460;2024-03-06T08:30:59;21.15;;;17.70;;
32501;SDS011;18952;52.516;13.460;2024-03-06T08:33:26;19.10;;;16.60;;
32501;SDS011;18952;52.516;13.460;2024-03-06T08:35:55;24.40;;;17.85;;
32501;SDS011;18952;52.516;13.460;2024-03-06T08:38:32;21.80;;;17.00;;
32501;SDS011;18952;52.516;13.460;2024-03-06T08:41:02;19.88;;;16.17;;
32501;SDS011;18952;52.516;13.460;2024-03-06T08:43:30;21.42;;;16.38;;
32501;SDS011;18952;52.516;13.460;2024-03-06T08:45:57;18.63;;;15.57;;
32501;SDS011;18952;52.516;13.460;2024-03-06T08:48:25;17.95;;;16.08;;
32501;SDS011;18952;52.516;13.460;2024-03-06T08:50:54;19.35;;;16.35;;
32501;SDS011;18952;52.516;13.460;2024-03-06T08:53:22;17.05;;;15.30;;
32501;SDS011;18952;52.516;13.460;2024-03-06T08:55:48;16.63;;;14.95;;
32501;SDS011;18952;52.516;13.460;2024-03-06T08:58:18;16.65;;;14.95;;
32501;SDS011;18952;52.516;13.460;2024-03-06T09:00:49;18.67;;;14.77;;
32501;SDS011;18952;52.516;13.460;2024-03-06T09:03:16;16.95;;;14.30;;
32501;SDS011;18952;52.516;13.460;2024-03-06T09:05:44;18.48;;;14.23;;
32501;SDS011;18952;52.516;13.460;2024-03-06T09:08:11;17.03;;;13.47;;
32501;SDS011;18952;52.516;13.460;2024-03-06T09:10:39;17.25;;;15.07;;
32501;SDS011;18952;52.516;13.460;2024-03-06T09:13:07;15.52;;;13.75;;
32501;SDS011;18952;52.516;13.460;2024-03-06T09:15:34;16.35;;;12.80;;
32501;SDS011;18952;52.516;13.460;2024-03-06T09:18:02;14.13;;;12.65;;
32501;SDS011;18952;52.516;13.460;2024-03-06T09:20:31;14.18;;;12.68;;
32501;SDS011;18952;52.516;13.460;2024-03-06T09:22:59;13.60;;;11.77;;
32501;SDS011;18952;52.516;13.460;2024-03-06T09:25:26;13.88;;;10.85;;
32501;SDS011;18952;52.516;13.460;2024-03-06T09:27:58;14.85;;;11.70;;
32501;SDS011;18952;52.516;13.460;2024-03-06T09:30:28;16.48;;;12.75;;
32501;SDS011;18952;52.516;13.460;2024-03-06T09:32:57;13.97;;;12.50;;
32501;SDS011;18952;52.516;13.460;2024-03-06T09:35:25;14.63;;;11.45;;
32501;SDS011;18952;52.516;13.460;2024-03-06T09:37:55;15.93;;;11.77;;
32501;SDS011;18952;52.516;13.460;2024-03-06T09:40:23;18.38;;;13.63;;
32501;SDS011;18952;52.516;13.460;2024-03-06T09:42:52;16.75;;;13.63;;
32501;SDS011;18952;52.516;13.460;2024-03-06T09:45:20;14.65;;;11.85;;
32501;SDS011;18952;52.516;13.460;2024-03-06T09:47:49;15.35;;;12.32;;
32501;SDS011;18952;52.516;13.460;2024-03-06T09:50:16;12.88;;;11.57;;
32501;SDS011;18952;52.516;13.460;2024-03-06T09:52:44;20.42;;;12.35;;
32501;SDS011;18952;52.516;13.460;2024-03-06T09:55:15;13.68;;;11.57;;
32501;SDS011;18952;52.516;13.460;2024-03-06T09:57:43;17.08;;;12.40;;
32501;SDS011;18952;52.516;13.460;2024-03-06T10:00:11;16.35;;;13.07;;
32501;SDS011;18952;52.516;13.460;2024-03-06T10:02:51;13.85;;;12.00;;
32501;SDS011;18952;52.516;13.460;2024-03-06T10:05:25;17.52;;;11.55;;
32501;SDS011;18952;52.516;13.460;2024-03-06T10:07:55;16.95;;;11.90;;
32501;SDS011;18952;52.516;13.460;2024-03-06T10:10:25;12.77;;;11.48;;
32501;SDS011;18952;52.516;13.460;2024-03-06T10:12:55;13.20;;;11.18;;
32501;SDS011;18952;52.516;13.460;2024-03-06T10:15:24;16.80;;;11.98;;
32501;SDS011;18952;52.516;13.460;2024-03-06T10:17:52;14.32;;;11.98;;
32501;SDS011;18952;52.516;13.460;2024-03-06T10:20:41;15.43;;;12.20;;
32501;SDS011;18952;52.516;13.460;2024-03-06T10:23:09;15.00;;;11.80;;
32501;SDS011;18952;52.516;13.460;2024-03-06T10:25:39;15.10;;;11.90;;
32501;SDS011;18952;52.516;13.460;2024-03-06T10:28:11;14.60;;;12.15;;
32501;SDS011;18952;52.516;13.460;2024-03-06T10:30:39;18.65;;;13.68;;
32501;SDS011;18952;52.516;13.460;2024-03-06T10:33:09;15.18;;;11.80;;
32501;SDS011;18952;52.516;13.460;2024-03-06T10:35:46;16.88;;;11.65;;
32501;SDS011;18952;52.516;13.460;2024-03-06T10:38:23;17.05;;;11.98;;
32501;SDS011;18952;52.516;13.460;2024-03-06T10:40:59;16.13;;;10.93;;
32501;SDS011;18952;52.516;13.460;2024-03-06T10:43:27;13.52;;;10.85;;
32501;SDS011;18952;52.516;13.460;2024-03-06T10:46:00;14.63;;;10.98;;
32501;SDS011;18952;52.516;13.460;2024-03-06T10:48:28;14.40;;;11.70;;
32501;SDS011;18952;52.516;13.460;2024-03-06T10:50:57;13.63;;;11.57;;
32501;SDS011;18952;52.516;13.460;2024-03-06T10:53:27;13.98;;;12.25;;
32501;SDS011;18952;52.516;13.460;2024-03-06T10:55:57;16.77;;;13.60;;
32501;SDS011;18952;52.516;13.460;2024-03-06T10:58:27;15.05;;;12.65;;
32501;SDS011;18952;52.516;13.460;2024-03-06T11:01:00;14.20;;;12.73;;
32501;SDS011;18952;52.516;13.460;2024-03-06T11:03:34;13.07;;;11.75;;
32501;SDS011;18952;52.516;13.460;2024-03-06T11:06:01;14.45;;;12.90;;
32501;SDS011;18952;52.516;13.460;2024-03-06T11:08:31;13.77;;;11.57;;
32501;SDS011;18952;52.516;13.460;2024-03-06T11:11:18;19.77;;;11.17;;
32501;SDS011;18952;52.516;13.460;2024-03-06T11:13:48;15.57;;;11.50;;
32501;SDS011;18952;52.516;13.460;2024-03-06T11:16:16;17.77;;;12.20;;
32501;SDS011;18952;52.516;13.460;2024-03-06T11:18:44;19.58;;;14.18;;
32501;SDS011;18952;52.516;13.460;2024-03-06T11:32:35;17.80;;;15.07;;
32501;SDS011;18952;52.516;13.460;2024-03-06T11:35:04;20.52;;;16.20;;
32501;SDS011;18952;52.516;13.460;2024-03-06T11:37:33;19.80;;;17.75;;
32501;SDS011;18952;52.516;13.460;2024-03-06T11:40:04;20.58;;;17.77;;
32501;SDS011;18952;52.516;13.460;2024-03-06T11:42:36;18.70;;;16.70;;
32501;SDS011;18952;52.516;13.460;2024-03-06T11:45:12;19.17;;;17.23;;
32501;SDS011;18952;52.516;13.460;2024-03-06T11:50:29;20.98;;;18.70;;
32501;SDS011;18952;52.516;13.460;2024-03-06T11:52:57;22.33;;;19.40;;
32501;SDS011;18952;52.516;13.460;2024-03-06T11:55:26;21.42;;;18.38;;
32501;SDS011;18952;52.516;13.460;2024-03-06T11:57:55;21.08;;;18.88;;
32501;SDS011;18952;52.516;13.460;2024-03-06T12:00:24;23.35;;;20.95;;
32501;SDS011;18952;52.516;13.460;2024-03-06T12:02:52;23.25;;;20.90;;
32501;SDS011;18952;52.516;13.460;2024-03-06T12:05:21;22.20;;;20.00;;
32501;SDS011;18952;52.516;13.460;2024-03-06T12:07:53;24.38;;;19.13;;
32501;SDS011;18952;52.516;13.460;2024-03-06T12:10:20;22.13;;;19.85;;
32501;SDS011;18952;52.516;13.460;2024-03-06T12:12:51;21.50;;;19.40;;
32501;SDS011;18952;52.516;13.460;2024-03-06T12:15:17;22.15;;;19.42;;
32501;SDS011;18952;52.516;13.460;2024-03-06T12:17:46;17.30;;;15.55;;
32501;SDS011;18952;52.516;13.460;2024-03-06T12:20:14;17.08;;;15.35;;
32501;SDS011;18952;52.516;13.460;2024-03-06T12:22:48;16.70;;;15.00;;
32501;SDS011;18952;52.516;13.460;2024-03-06T12:25:24;15.90;;;14.15;;
32501;SDS011;18952;52.516;13.460;2024-03-06T12:27:54;15.95;;;14.23;;
32501;SDS011;18952;52.516;13.460;2024-03-06T12:30:21;17.02;;;14.30;;
32501;SDS011;18952;52.516;13.460;2024-03-06T12:33:02;15.57;;;13.23;;
32501;SDS011;18952;52.516;13.460;2024-03-06T12:35:31;14.63;;;12.82;;
32501;SDS011;18952;52.516;13.460;2024-03-06T12:38:11;13.65;;;12.20;;
32501;SDS011;18952;52.516;13.460;2024-03-06T12:40:50;13.73;;;12.32;;
32501;SDS011;18952;52.516;13.460;2024-03-06T12:43:21;15.20;;;12.52;;
32501;SDS011;18952;52.516;13.460;2024-03-06T12:45:49;13.13;;;11.73;;
32501;SDS011;18952;52.516;13.460;2024-03-06T12:48:17;14.18;;;12.65;;
32501;SDS011;18952;52.516;13.460;2024-03-06T12:50:44;14.48;;;12.50;;
32501;SDS011;18952;52.516;13.460;2024-03-06T12:53:11;15.65;;;13.18;;
32501;SDS011;18952;52.516;13.460;2024-03-06T12:55:37;18.73;;;16.70;;
32501;SDS011;18952;52.516;13.460;2024-03-06T12:58:08;15.13;;;13.52;;
32501;SDS011;18952;52.516;13.460;2024-03-06T13:00:36;14.77;;;13.20;;
32501;SDS011;18952;52.516;13.460;2024-03-06T13:03:03;14.80;;;12.95;;
32501;SDS011;18952;52.516;13.460;2024-03-06T13:05:33;16.75;;;13.57;;
32501;SDS011;18952;52.516;13.460;2024-03-06T13:08:01;15.15;;;12.93;;
32501;SDS011;18952;52.516;13.460;2024-03-06T13:10:29;15.30;;;13.43;;
32501;SDS011;18952;52.516;13.460;2024-03-06T13:12:56;18.08;;;13.13;;
32501;SDS011;18952;52.516;13.460;2024-03-06T13:15:25;17.60;;;15.38;;
32501;SDS011;18952;52.516;13.460;2024-03-06T13:17:56;17.65;;;15.57;;
32501;SDS011;18952;52.516;13.460;2024-03-06T13:20:27;21.23;;;15.55;;
32501;SDS011;18952;52.516;13.460;2024-03-06T13:22:54;23.00;;;18.70;;
32501;SDS011;18952;52.516;13.460;2024-03-06T13:25:22;25.05;;;19.25;;
32501;SDS011;18952;52.516;13.460;2024-03-06T13:27:49;22.45;;;20.00;;
32501;SDS011;18952;52.516;13.460;2024-03-06T13:30:17;24.40;;;19.88;;
32501;SDS011;18952;52.516;13.460;2024-03-06T13:32:45;24.40;;;19.55;;
32501;SDS011;18952;52.516;13.460;2024-03-06T13:35:15;27.57;;;21.97;;
32501;SDS011;18952;52.516;13.460;2024-03-06T13:37:43;34.07;;;23.73;;
32501;SDS011;18952;52.516;13.460;2024-03-06T13:40:10;35.45;;;26.30;;
32501;SDS011;18952;52.516;13.460;2024-03-06T13:42:39;36.15;;;29.15;;
32501;SDS011;18952;52.516;13.460;2024-03-06T13:45:10;43.83;;;30.00;;
32501;SDS011;18952;52.516;13.460;2024-03-06T13:47:40;37.70;;;29.00;;
32501;SDS011;18952;52.516;13.460;2024-03-06T13:50:25;36.28;;;29.20;;
32501;SDS011;18952;52.516;13.460;2024-03-06T13:52:54;26.75;;;22.88;;
32501;SDS011;18952;52.516;13.460;2024-03-06T13:55:22;27.45;;;20.63;;
32501;SDS011;18952;52.516;13.460;2024-03-06T13:57:49;22.80;;;19.13;;
32501;SDS011;18952;52.516;13.460;2024-03-06T14:00:17;21.33;;;18.00;;
32501;SDS011;18952;52.516;13.460;2024-03-06T14:02:45;21.75;;;18.33;;
32501;SDS011;18952;52.516;13.460;2024-03-06T14:05:13;22.45;;;18.52;;
32501;SDS011;18952;52.516;13.460;2024-03-06T14:07:44;27.47;;;18.70;;
32501;SDS011;18952;52.516;13.460;2024-03-06T14:10:12;21.45;;;17.67;;
32501;SDS011;18952;52.516;13.460;2024-03-06T14:12:39;18.95;;;16.95;;
32501;SDS011;18952;52.516;13.460;2024-03-06T14:15:08;22.73;;;18.30;;
32501;SDS011;18952;52.516;13.460;2024-03-06T14:17:34;24.77;;;18.75;;
32501;SDS011;18952;52.516;13.460;2024-03-06T14:20:03;32.72;;;21.10;;
32501;SDS011;18952;52.516;13.460;2024-03-06T14:22:30;27.15;;;23.33;;
32501;SDS011;18952;52.516;13.460;2024-03-06T14:24:58;33.88;;;25.88;;
32501;SDS011;18952;52.516;13.460;2024-03-06T14:27:25;38.40;;;28.80;;
32501;SDS011;18952;52.516;13.460;2024-03-06T14:29:53;39.30;;;30.65;;
32501;SDS011;18952;52.516;13.460;2024-03-06T14:32:21;41.45;;;31.30;;
32501;SDS011;18952;52.516;13.460;2024-03-06T14:34:48;40.78;;;28.60;;
32501;SDS011;18952;52.516;13.460;2024-03-06T14:37:16;39.33;;;29.55;;
32501;SDS011;18952;52.516;13.460;2024-03-06T14:39:43;39.58;;;27.33;;
32501;SDS011;18952;52.516;13.460;2024-03-06T14:42:11;42.30;;;28.40;;